createdAt,value
2023-01-07T00:01:15.464Z,11.84
2023-01-07T00:03:44.200Z,11.90
2023-01-07T00:06:14.903Z,11.90
2023-01-07T00:08:44.871Z,11.80
2023-01-07T00:11:16.309Z,11.75
2023-01-07T00:13:46.005Z,11.69
2023-01-07T00:16:17.202Z,11.71
2023-01-07T00:18:45.517Z,11.68
2023-01-07T00:21:15.953Z,11.66
2023-01-07T00:23:45.009Z,11.64
2023-01-07T00:26:14.729Z,11.58
2023-01-07T00:28:46.253Z,11.61
2023-01-07T00:31:16.347Z,11.58
2023-01-07T00:33:51.799Z,11.62
2023-01-07T00:36:20.154Z,11.62
2023-01-07T00:38:48.359Z,11.54
2023-01-07T00:41:16.027Z,11.51
2023-01-07T00:43:45.028Z,11.57
2023-01-07T00:46:14.649Z,11.58
2023-01-07T00:48:42.673Z,11.60
2023-01-07T00:51:11.896Z,11.61
2023-01-07T00:53:39.914Z,11.58
2023-01-07T00:56:08.007Z,11.57
2023-01-07T00:58:35.706Z,11.58
2023-01-07T01:01:05.337Z,11.63
2023-01-07T01:03:34.629Z,11.65
2023-01-07T01:06:03.759Z,11.69
2023-01-07T01:08:31.586Z,11.65
2023-01-07T01:11:04.901Z,11.62
2023-01-07T01:13:32.770Z,11.63
2023-01-07T01:16:00.780Z,11.68
2023-01-07T01:18:29.983Z,11.72
2023-01-07T01:20:57.631Z,11.62
2023-01-07T01:23:25.301Z,11.63
2023-01-07T01:25:53.057Z,11.66
2023-01-07T01:28:20.697Z,11.64
2023-01-07T01:30:55.794Z,11.59
2023-01-07T01:33:23.420Z,11.54
2023-01-07T01:35:52.440Z,11.54
2023-01-07T01:38:20.163Z,11.49
2023-01-07T01:40:47.865Z,11.53
2023-01-07T01:43:33.721Z,11.60
2023-01-07T01:46:04.413Z,11.69
2023-01-07T01:48:36.199Z,11.65
2023-01-07T01:51:05.945Z,11.64
2023-01-07T01:53:36.585Z,11.60
2023-01-07T01:56:08.437Z,11.57
2023-01-07T01:58:39.522Z,11.57
2023-01-07T02:01:07.423Z,11.55
2023-01-07T02:03:37.560Z,11.56
2023-01-07T02:06:10.968Z,11.56
2023-01-07T02:08:38.858Z,11.54
2023-01-07T02:11:19.299Z,11.52
2023-01-07T02:14:01.328Z,11.51
2023-01-07T02:16:36.655Z,11.49
2023-01-07T02:19:29.374Z,11.44
2023-01-07T02:22:06.690Z,11.40
2023-01-07T02:25:02.505Z,11.37
2023-01-07T02:28:02.434Z,11.39
2023-01-07T02:30:48.895Z,11.36
2023-01-07T02:33:27.583Z,11.40
2023-01-07T02:36:33.974Z,11.40
2023-01-07T02:39:14.443Z,11.37
2023-01-07T02:41:49.820Z,11.31
2023-01-07T02:44:26.780Z,11.34
2023-01-07T02:47:02.213Z,11.31
2023-01-07T02:49:31.376Z,11.24
2023-01-07T02:52:17.555Z,11.27
2023-01-07T02:54:46.924Z,11.27
2023-01-07T02:57:43.157Z,11.27
2023-01-07T03:00:19.382Z,11.18
2023-01-07T03:02:59.483Z,11.11
2023-01-07T03:05:42.690Z,11.17
2023-01-07T03:08:26.913Z,11.25
2023-01-07T03:11:00.628Z,11.33
2023-01-07T03:13:36.089Z,11.29
2023-01-07T03:16:06.763Z,11.34
2023-01-07T03:18:38.975Z,11.34
2023-01-07T03:21:13.663Z,11.33
2023-01-07T03:23:45.402Z,11.27
2023-01-07T03:26:15.144Z,11.30
2023-01-07T03:28:43.894Z,11.33
2023-01-07T03:31:15.356Z,11.41
2023-01-07T03:33:50.395Z,11.41
2023-01-07T03:36:24.061Z,11.34
2023-01-07T03:38:53.424Z,11.34
2023-01-07T03:41:35.091Z,11.31
2023-01-07T03:44:02.824Z,11.24
2023-01-07T03:46:30.567Z,11.23
2023-01-07T03:48:58.283Z,11.21
2023-01-07T03:51:27.284Z,11.18
2023-01-07T03:53:54.991Z,11.16
2023-01-07T03:56:22.858Z,11.22
2023-01-07T03:58:50.544Z,11.21
2023-01-07T04:01:18.338Z,11.22
2023-01-07T04:03:46.121Z,11.29
2023-01-07T04:06:13.756Z,11.19
2023-01-07T04:08:42.762Z,11.20
2023-01-07T04:11:10.461Z,11.16
2023-01-07T04:13:38.110Z,11.18
2023-01-07T04:16:06.468Z,11.12
2023-01-07T04:18:34.237Z,11.17
2023-01-07T04:21:01.960Z,11.23
2023-01-07T04:23:29.949Z,11.28
2023-01-07T04:25:58.980Z,11.26
2023-01-07T04:28:26.986Z,11.21
2023-01-07T04:30:54.850Z,11.26
2023-01-07T04:33:22.714Z,11.31
2023-01-07T04:35:50.363Z,11.25
2023-01-07T04:38:18.257Z,11.24
2023-01-07T04:40:46.115Z,11.25
2023-01-07T04:43:15.187Z,11.25
2023-01-07T04:45:43.075Z,11.23
2023-01-07T04:48:10.754Z,11.22
2023-01-07T04:50:38.450Z,11.21
2023-01-07T04:53:06.192Z,11.21
2023-01-07T04:55:33.969Z,11.25
2023-01-07T04:58:01.756Z,11.18
2023-01-07T05:00:30.750Z,11.19
2023-01-07T05:02:58.585Z,11.20
2023-01-07T05:05:26.249Z,11.15
2023-01-07T05:07:53.969Z,11.09
2023-01-07T05:10:21.750Z,11.04
2023-01-07T05:12:49.459Z,11.09
2023-01-07T05:15:17.145Z,11.16
2023-01-07T05:17:46.194Z,11.13
2023-01-07T05:20:15.369Z,11.10
2023-01-07T05:22:43.043Z,11.13
2023-01-07T05:25:11.243Z,11.20
2023-01-07T05:27:38.890Z,11.17
2023-01-07T05:30:07.680Z,11.16
2023-01-07T05:32:35.383Z,11.21
2023-01-07T05:35:04.855Z,11.17
2023-01-07T05:37:32.514Z,11.19
2023-01-07T05:40:00.200Z,11.15
2023-01-07T05:42:27.897Z,11.19
2023-01-07T05:44:55.616Z,11.18
2023-01-07T05:47:23.297Z,11.32
2023-01-07T05:49:51.037Z,11.36
2023-01-07T05:52:20.077Z,11.39
2023-01-07T05:54:47.767Z,11.37
2023-01-07T05:57:15.442Z,11.35
2023-01-07T05:59:43.132Z,11.24
2023-01-07T06:02:10.848Z,11.28
2023-01-07T06:04:38.494Z,11.34
2023-01-07T06:07:06.217Z,11.31
2023-01-07T06:09:35.452Z,11.29
2023-01-07T06:12:03.063Z,11.33
2023-01-07T06:14:30.688Z,11.25
2023-01-07T06:16:58.432Z,11.21
2023-01-07T06:19:26.479Z,11.21
2023-01-07T06:21:54.209Z,11.22
2023-01-07T06:24:21.953Z,11.19
2023-01-07T06:26:51.014Z,11.25
2023-01-07T06:29:18.757Z,11.26
2023-01-07T06:31:46.441Z,11.33
2023-01-07T06:34:14.107Z,11.35
2023-01-07T06:36:41.827Z,11.31
2023-01-07T06:39:09.843Z,11.28
2023-01-07T06:41:37.480Z,11.28
2023-01-07T06:44:06.832Z,11.33
2023-01-07T06:46:34.588Z,11.41
2023-01-07T06:49:02.625Z,11.44
2023-01-07T06:51:30.288Z,11.40
2023-01-07T06:53:58.498Z,11.33
2023-01-07T06:56:26.215Z,11.38
2023-01-07T06:58:54.026Z,11.39
2023-01-07T07:01:23.307Z,11.43
2023-01-07T07:03:51.123Z,11.36
2023-01-07T07:06:18.810Z,11.23
2023-01-07T07:08:46.492Z,11.22
2023-01-07T07:11:14.149Z,11.24
2023-01-07T07:13:41.822Z,11.21
2023-01-07T07:16:09.774Z,11.24
2023-01-07T07:18:38.860Z,11.30
2023-01-07T07:21:06.905Z,11.27
2023-01-07T07:23:34.625Z,11.20
2023-01-07T07:26:02.293Z,11.14
2023-01-07T07:28:29.973Z,11.11
2023-01-07T07:30:58.190Z,11.17
2023-01-07T07:33:25.907Z,11.20
2023-01-07T07:35:55.964Z,11.21
2023-01-07T07:38:23.695Z,11.16
2023-01-07T07:40:51.419Z,11.07
2023-01-07T07:43:19.175Z,11.02
2023-01-07T07:45:47.078Z,11.06
2023-01-07T07:48:16.312Z,11.07
2023-01-07T07:50:44.063Z,11.10
2023-01-07T07:53:14.035Z,11.09
2023-01-07T07:55:41.692Z,11.10
2023-01-07T07:58:09.424Z,11.08
2023-01-07T08:00:37.229Z,11.09
2023-01-07T08:03:05.634Z,11.04
2023-01-07T08:05:33.660Z,11.06
2023-01-07T08:08:01.394Z,11.16
2023-01-07T08:10:30.684Z,11.22
2023-01-07T08:12:58.315Z,11.21
2023-01-07T08:15:26.273Z,11.16
2023-01-07T08:18:00.641Z,11.11
2023-01-07T08:20:28.838Z,11.14
2023-01-07T08:22:59.507Z,11.22
2023-01-07T08:25:27.302Z,11.20
2023-01-07T08:27:57.879Z,11.22
2023-01-07T08:30:26.420Z,11.23
2023-01-07T08:32:54.262Z,11.23
2023-01-07T08:35:22.440Z,11.25
2023-01-07T08:37:50.695Z,11.29
2023-01-07T08:40:18.423Z,11.37
2023-01-07T08:42:46.128Z,11.32
2023-01-07T08:45:15.466Z,11.32
2023-01-07T08:47:47.485Z,11.28
2023-01-07T08:50:15.252Z,11.35
2023-01-07T08:52:42.861Z,11.44
2023-01-07T08:55:10.760Z,11.55
2023-01-07T08:57:38.546Z,11.58
2023-01-07T09:00:07.707Z,11.64
2023-01-07T09:02:36.776Z,11.56
2023-01-07T09:05:05.951Z,11.64
2023-01-07T09:07:33.633Z,11.67
2023-01-07T09:10:01.399Z,11.65
2023-01-07T09:12:29.065Z,11.56
2023-01-07T09:14:56.779Z,11.57
2023-01-07T09:17:24.552Z,11.49
2023-01-07T09:19:53.661Z,11.46
2023-01-07T09:22:21.425Z,11.49
2023-01-07T09:24:49.186Z,11.51
2023-01-07T09:27:17.092Z,11.55
2023-01-07T09:29:44.817Z,11.58
2023-01-07T09:32:12.723Z,11.74
2023-01-07T09:34:40.602Z,11.87
2023-01-07T09:37:09.620Z,11.91
2023-01-07T09:39:37.258Z,11.99
2023-01-07T09:42:12.665Z,12.19
2023-01-07T09:44:55.014Z,12.17
2023-01-07T09:47:27.573Z,12.25
2023-01-07T09:49:59.277Z,12.30
2023-01-07T09:52:33.085Z,12.37
2023-01-07T09:55:06.752Z,12.44
2023-01-07T09:57:34.548Z,12.41
2023-01-07T10:00:03.584Z,12.47
2023-01-07T10:02:41.972Z,12.43
2023-01-07T10:05:22.329Z,12.40
2023-01-07T10:08:29.901Z,12.36
2023-01-07T10:10:54.004Z,12.28
2023-01-07T10:13:44.037Z,12.31
2023-01-07T10:16:21.355Z,12.26
2023-01-07T10:18:59.919Z,12.23
2023-01-07T10:21:34.575Z,12.30
2023-01-07T10:24:10.587Z,12.26
2023-01-07T10:26:42.300Z,12.29
2023-01-07T10:29:15.514Z,12.30
2023-01-07T10:31:44.729Z,12.30
2023-01-07T10:34:16.738Z,12.22
2023-01-07T10:36:58.839Z,12.25
2023-01-07T10:39:36.248Z,12.26
2023-01-07T10:42:10.383Z,12.17
2023-01-07T10:45:21.439Z,12.08
2023-01-07T10:48:00.638Z,11.96
2023-01-07T10:50:49.615Z,12.04
2023-01-07T10:53:29.095Z,12.06
2023-01-07T10:56:08.593Z,12.05
2023-01-07T10:58:40.652Z,12.09
2023-01-07T11:01:11.311Z,12.13
2023-01-07T11:03:40.176Z,12.11
2023-01-07T11:06:12.736Z,12.11
2023-01-07T11:08:42.778Z,12.10
2023-01-07T11:11:16.637Z,12.04
2023-01-07T11:13:51.323Z,12.08
2023-01-07T11:16:24.747Z,12.05
2023-01-07T11:18:58.508Z,12.02
2023-01-07T11:21:43.207Z,11.99
2023-01-07T11:24:32.688Z,11.99
2023-01-07T11:27:05.383Z,12.04
2023-01-07T11:29:38.897Z,12.03
2023-01-07T11:32:18.580Z,12.07
2023-01-07T11:34:52.634Z,11.99
2023-01-07T11:37:33.782Z,12.05
2023-01-07T11:40:03.199Z,12.05
2023-01-07T11:42:41.150Z,12.17
2023-01-07T11:45:14.821Z,12.07
2023-01-07T11:47:47.706Z,12.07
2023-01-07T11:50:27.452Z,12.10
2023-01-07T11:53:00.823Z,12.14
2023-01-07T11:55:29.279Z,12.09
2023-01-07T11:58:30.153Z,12.14
2023-01-07T12:01:03.332Z,12.10
2023-01-07T12:03:31.265Z,12.14
2023-01-07T12:06:01.854Z,12.19
2023-01-07T12:08:35.303Z,12.13
2023-01-07T12:11:08.895Z,12.15
2023-01-07T12:13:42.281Z,12.14
2023-01-07T12:16:11.587Z,12.12
2023-01-07T12:19:14.825Z,12.08
2023-01-07T12:21:58.525Z,12.14
2023-01-07T12:24:43.831Z,12.06
2023-01-07T12:27:22.669Z,12.02
2023-01-07T12:30:03.486Z,12.04
2023-01-07T12:32:45.837Z,12.08
2023-01-07T12:35:19.131Z,12.14
2023-01-07T12:37:52.931Z,12.04
2023-01-07T12:40:32.467Z,12.03
2023-01-07T12:43:11.441Z,12.12
2023-01-07T12:45:46.153Z,12.18
2023-01-07T12:48:22.458Z,12.18
2023-01-07T12:50:54.028Z,12.14
2023-01-07T12:53:30.221Z,12.22
2023-01-07T12:56:01.396Z,12.35
2023-01-07T12:58:40.916Z,12.31
2023-01-07T13:01:20.083Z,12.31
2023-01-07T13:03:55.846Z,12.20
2023-01-07T13:06:36.499Z,12.29
2023-01-07T13:09:13.325Z,12.35
2023-01-07T13:12:01.993Z,12.39
2023-01-07T13:14:34.289Z,12.40
2023-01-07T13:17:16.242Z,12.37
2023-01-07T13:19:44.046Z,12.36
2023-01-07T13:22:20.393Z,12.44
2023-01-07T13:25:00.954Z,12.48
2023-01-07T13:27:38.239Z,12.50
2023-01-07T13:30:20.391Z,12.52
2023-01-07T13:33:00.524Z,12.56
2023-01-07T13:35:44.188Z,12.47
2023-01-07T13:38:23.285Z,12.40
2023-01-07T13:41:04.863Z,12.42
2023-01-07T13:43:53.525Z,12.40
2023-01-07T13:46:26.050Z,12.41
2023-01-07T13:48:55.971Z,12.44
2023-01-07T13:51:30.079Z,12.46
2023-01-07T13:53:58.527Z,12.51
2023-01-07T13:56:43.944Z,12.50
2023-01-07T13:59:32.718Z,12.56
2023-01-07T14:02:20.068Z,12.53
2023-01-07T14:05:04.509Z,12.55
2023-01-07T14:07:32.685Z,12.62
2023-01-07T14:10:00.379Z,12.64
2023-01-07T14:13:06.220Z,12.61
2023-01-07T14:16:07.804Z,12.52
2023-01-07T14:19:05.132Z,12.54
2023-01-07T14:21:52.855Z,12.50
2023-01-07T14:24:34.758Z,12.48
2023-01-07T14:27:16.572Z,12.47
2023-01-07T14:29:47.434Z,12.40
2023-01-07T14:32:29.157Z,12.41
2023-01-07T14:35:03.450Z,12.42
2023-01-07T14:37:37.677Z,12.47
2023-01-07T14:40:49.764Z,12.47
2023-01-07T14:43:48.604Z,12.37
2023-01-07T14:46:45.710Z,12.28
2023-01-07T14:49:38.354Z,12.37
2023-01-07T14:52:15.103Z,12.41
2023-01-07T14:55:14.262Z,12.32
2023-01-07T14:57:56.163Z,12.37
2023-01-07T15:00:53.371Z,12.31
2023-01-07T15:03:50.941Z,12.33
2023-01-07T15:06:29.942Z,12.30
2023-01-07T15:09:22.086Z,12.35
2023-01-07T15:12:11.742Z,12.31
2023-01-07T15:15:03.752Z,12.27
2023-01-07T15:17:33.255Z,12.27
2023-01-07T15:20:05.352Z,12.20
2023-01-07T15:22:56.537Z,12.23
2023-01-07T15:25:41.848Z,12.16
2023-01-07T15:28:16.538Z,12.12
2023-01-07T15:30:55.955Z,12.07
2023-01-07T15:33:53.449Z,11.98
2023-01-07T15:36:21.613Z,11.92
2023-01-07T15:38:52.891Z,11.87
2023-01-07T15:41:27.768Z,11.87
2023-01-07T15:43:58.036Z,11.86
2023-01-07T15:46:27.379Z,11.79
2023-01-07T15:49:16.069Z,11.72
2023-01-07T15:51:45.501Z,11.81
2023-01-07T15:54:28.601Z,11.70
2023-01-07T15:57:00.447Z,11.68
2023-01-07T15:59:32.568Z,11.64
2023-01-07T16:02:06.941Z,11.55
2023-01-07T16:04:38.298Z,11.50
2023-01-07T16:07:06.036Z,11.49
2023-01-07T16:09:34.393Z,11.50
2023-01-07T16:12:02.163Z,11.51
2023-01-07T16:14:38.111Z,11.50
2023-01-07T16:17:14.228Z,11.50
2023-01-07T16:19:42.574Z,11.45
2023-01-07T16:22:16.188Z,11.40
2023-01-07T16:24:53.350Z,11.36
2023-01-07T16:27:24.951Z,11.33
2023-01-07T16:29:57.898Z,11.32
2023-01-07T16:32:26.699Z,11.29
2023-01-07T16:35:00.428Z,11.34
2023-01-07T16:37:29.361Z,11.32
2023-01-07T16:39:57.558Z,11.30
2023-01-07T16:42:27.511Z,11.28
2023-01-07T16:45:02.142Z,11.31
2023-01-07T16:47:31.410Z,11.24
2023-01-07T16:50:00.355Z,11.24
2023-01-07T16:52:33.011Z,11.25
2023-01-07T16:55:01.196Z,11.23
2023-01-07T16:57:38.886Z,11.21
2023-01-07T17:00:23.961Z,11.19
2023-01-07T17:02:57.346Z,11.19
2023-01-07T17:05:29.111Z,11.14
2023-01-07T17:07:59.260Z,11.14
2023-01-07T17:10:29.287Z,11.12
2023-01-07T17:12:59.568Z,11.12
2023-01-07T17:15:36.098Z,11.06
2023-01-07T17:18:29.056Z,11.03
2023-01-07T17:20:58.884Z,11.03
2023-01-07T17:23:34.122Z,11.07
2023-01-07T17:26:04.438Z,11.10
2023-01-07T17:28:34.200Z,11.11
2023-01-07T17:31:03.702Z,11.07
2023-01-07T17:33:31.420Z,11.08
2023-01-07T17:35:59.121Z,11.10
2023-01-07T17:38:26.826Z,11.06
2023-01-07T18:06:59.647Z,10.99
2023-01-07T18:09:27.314Z,11.12
2023-01-07T18:12:12.668Z,11.24
2023-01-07T18:14:40.321Z,11.01
2023-01-07T18:17:08.359Z,10.91
2023-01-07T18:19:36.147Z,10.96
2023-01-07T18:22:05.235Z,10.94
2023-01-07T18:24:33.023Z,10.92
2023-01-07T18:27:00.800Z,10.92
2023-01-07T18:29:28.488Z,10.92
2023-01-07T18:31:56.192Z,10.90
2023-01-07T18:34:24.023Z,10.96
2023-01-07T18:36:51.749Z,11.14
2023-01-07T18:39:21.155Z,11.07
2023-01-07T18:41:50.229Z,11.01
2023-01-07T18:44:19.868Z,11.02
2023-01-07T18:46:47.727Z,10.99
2023-01-07T18:49:15.931Z,11.07
2023-01-07T18:51:44.018Z,11.04
2023-01-07T18:54:11.782Z,11.01
2023-01-07T18:56:41.036Z,11.04
2023-01-07T18:59:08.869Z,11.08
2023-01-07T19:01:36.751Z,11.03
2023-01-07T19:04:06.816Z,11.01
2023-01-07T19:06:34.615Z,10.98
2023-01-07T19:09:02.428Z,10.98
2023-01-07T19:11:31.473Z,11.08
2023-01-07T19:14:00.595Z,11.09
2023-01-07T19:16:28.734Z,11.11
2023-01-07T19:18:56.567Z,11.07
2023-01-07T19:21:26.313Z,11.08
2023-01-07T19:23:54.140Z,11.09
2023-01-07T19:26:22.081Z,11.07
2023-01-07T19:28:49.804Z,11.12
2023-01-07T19:31:18.832Z,11.08
2023-01-07T19:33:46.575Z,11.12
2023-01-07T19:36:17.034Z,11.06
2023-01-07T19:38:47.310Z,11.10
2023-01-07T19:41:16.467Z,11.11
2023-01-07T19:43:45.819Z,11.17
2023-01-07T19:46:15.869Z,11.22
2023-01-07T19:48:48.047Z,11.18
2023-01-07T19:51:15.865Z,11.18
2023-01-07T19:53:43.695Z,11.20
2023-01-07T19:56:13.523Z,11.26
2023-01-07T19:58:41.885Z,11.26
2023-01-07T20:01:12.253Z,11.21
2023-01-07T20:03:40.319Z,11.18
2023-01-07T20:06:11.451Z,11.23
2023-01-07T20:08:40.089Z,11.17
2023-01-07T20:11:08.227Z,11.10
2023-01-07T20:13:38.114Z,11.05
2023-01-07T20:16:06.935Z,11.09
2023-01-07T20:18:40.685Z,11.05
2023-01-07T20:21:17.518Z,11.01
2023-01-07T20:23:45.856Z,10.96
2023-01-07T20:26:15.947Z,10.96
2023-01-07T20:28:44.520Z,10.97
2023-01-07T20:31:14.792Z,10.92
2023-01-07T20:33:45.301Z,10.88
2023-01-07T20:36:16.301Z,10.88
2023-01-07T20:38:45.149Z,10.83
2023-01-07T20:41:20.898Z,10.81
2023-01-07T20:43:52.169Z,10.83
2023-01-07T20:46:21.952Z,10.78
2023-01-07T20:48:49.988Z,10.75
2023-01-07T20:51:19.779Z,10.77
2023-01-07T20:53:48.384Z,10.77
2023-01-07T20:56:18.584Z,10.86
2023-01-07T20:58:46.756Z,10.83
2023-01-07T21:01:17.002Z,10.85
2023-01-07T21:03:45.635Z,10.81
2023-01-07T21:06:15.045Z,10.79
2023-01-07T21:08:44.652Z,10.76
2023-01-07T21:11:14.617Z,10.69
2023-01-07T21:13:43.079Z,10.64
2023-01-07T21:16:11.435Z,10.68
2023-01-07T21:18:39.438Z,10.67
2023-01-07T21:21:10.968Z,10.64
2023-01-07T21:23:39.149Z,10.70
2023-01-07T21:26:10.061Z,10.73
2023-01-07T21:28:37.844Z,10.76
2023-01-07T21:31:09.141Z,10.87
2023-01-07T21:33:37.811Z,10.89
2023-01-07T21:36:09.797Z,10.82
2023-01-07T21:38:37.641Z,10.80
2023-01-07T21:41:12.430Z,10.74
2023-01-07T21:43:40.413Z,10.76
2023-01-07T21:46:09.175Z,10.75
2023-01-07T21:48:38.958Z,10.81
2023-01-07T21:51:08.706Z,10.86
2023-01-07T21:53:37.281Z,10.81
2023-01-07T21:56:06.649Z,10.79
2023-01-07T21:58:35.940Z,10.72
2023-01-07T22:01:04.559Z,10.59
2023-01-07T22:03:32.897Z,10.60
2023-01-07T22:06:02.140Z,10.65
2023-01-07T22:08:30.212Z,10.65
2023-01-07T22:10:57.951Z,10.63
2023-01-07T22:13:25.669Z,10.66
2023-01-07T22:15:55.937Z,10.69
2023-01-07T22:18:23.768Z,10.64
2023-01-07T22:20:55.979Z,10.66
2023-01-07T22:23:24.181Z,10.60
2023-01-07T22:25:51.939Z,10.60
2023-01-07T22:28:23.014Z,10.60
2023-01-07T22:30:55.386Z,10.60
2023-01-07T22:33:23.545Z,10.62
2023-01-07T22:35:52.262Z,10.60
2023-01-07T22:38:23.874Z,10.54
2023-01-07T22:40:51.919Z,10.62
2023-01-07T22:43:23.900Z,10.63
2023-01-07T22:45:56.644Z,10.64
2023-01-07T22:48:27.317Z,10.64
2023-01-07T22:50:58.864Z,10.69
2023-01-07T22:53:26.593Z,10.80
2023-01-07T22:55:54.884Z,10.79
2023-01-07T22:58:22.931Z,10.78
2023-01-07T23:01:12.820Z,10.83
2023-01-07T23:03:41.537Z,10.89
2023-01-07T23:06:10.628Z,10.85
2023-01-07T23:08:38.417Z,10.88
2023-01-07T23:11:07.157Z,10.92
2023-01-07T23:13:35.219Z,10.97
2023-01-07T23:16:06.389Z,10.97
2023-01-07T23:18:34.968Z,11.00
2023-01-07T23:21:05.259Z,11.06
2023-01-07T23:23:33.213Z,11.07
2023-01-07T23:26:00.865Z,11.15
2023-01-07T23:28:29.037Z,11.16
2023-01-07T23:31:02.167Z,11.11
2023-01-07T23:33:31.994Z,11.05
2023-01-07T23:36:04.355Z,11.05
2023-01-07T23:38:32.637Z,11.00
2023-01-07T23:41:02.530Z,11.01
2023-01-07T23:43:30.683Z,11.11
2023-01-07T23:45:59.227Z,11.09
2023-01-07T23:48:28.092Z,11.14
2023-01-07T23:50:57.815Z,11.12
2023-01-07T23:53:26.380Z,11.18
2023-01-07T23:55:56.008Z,11.21
2023-01-07T23:58:25.900Z,11.23
